sensor_id;sensor_type;location;lat;lon;timestamp;P1;durP1;ratioP1;P2;durP2;ratioP2
27612;SDS011;15036;48.094;-1.690;2023-08-06T00:01:11;14.98;;;3.40;;
27612;SDS011;15036;48.094;-1.690;2023-08-06T00:03:36;13.25;;;3.70;;
27612;SDS011;15036;48.094;-1.690;2023-08-06T00:06:02;13.85;;;3.78;;
27612;SDS011;15036;48.094;-1.690;2023-08-06T00:08:27;15.13;;;4.18;;
27612;SDS011;15036;48.094;-1.690;2023-08-06T00:10:53;13.65;;;3.80;;
27612;SDS011;15036;48.094;-1.690;2023-08-06T00:13:18;15.38;;;3.95;;
27612;SDS011;15036;48.094;-1.690;2023-08-06T00:15:43;12.88;;;3.22;;
27612;SDS011;15036;48.094;-1.690;2023-08-06T00:18:09;13.50;;;3.42;;
27612;SDS011;15036;48.094;-1.690;2023-08-06T00:20:34;11.40;;;3.15;;
27612;SDS011;15036;48.094;-1.690;2023-08-06T00:22:59;12.63;;;3.20;;
27612;SDS011;15036;48.094;-1.690;2023-08-06T00:25:25;11.23;;;3.30;;
27612;SDS011;15036;48.094;-1.690;2023-08-06T00:27:50;13.40;;;4.00;;
27612;SDS011;15036;48.094;-1.690;2023-08-06T00:30:15;12.98;;;3.90;;
27612;SDS011;15036;48.094;-1.690;2023-08-06T00:32:41;13.23;;;3.33;;
27612;SDS011;15036;48.094;-1.690;2023-08-06T00:35:06;11.40;;;3.20;;
27612;SDS011;15036;48.094;-1.690;2023-08-06T00:37:32;11.98;;;3.55;;
27612;SDS011;15036;48.094;-1.690;2023-08-06T00:39:57;13.13;;;3.42;;
27612;SDS011;15036;48.094;-1.690;2023-08-06T00:42:23;15.35;;;3.40;;
27612;SDS011;15036;48.094;-1.690;2023-08-06T00:44:48;16.05;;;3.08;;
27612;SDS011;15036;48.094;-1.690;2023-08-06T00:47:14;13.45;;;3.50;;
27612;SDS011;15036;48.094;-1.690;2023-08-06T00:49:40;15.80;;;3.20;;
27612;SDS011;15036;48.094;-1.690;2023-08-06T00:52:06;10.75;;;3.13;;
27612;SDS011;15036;48.094;-1.690;2023-08-06T00:54:33;12.82;;;3.03;;
27612;SDS011;15036;48.094;-1.690;2023-08-06T00:56:58;17.25;;;3.95;;
27612;SDS011;15036;48.094;-1.690;2023-08-06T00:59:25;13.90;;;3.05;;
27612;SDS011;15036;48.094;-1.690;2023-08-06T01:01:51;10.98;;;2.92;;
27612;SDS011;15036;48.094;-1.690;2023-08-06T01:04:17;12.50;;;2.83;;
27612;SDS011;15036;48.094;-1.690;2023-08-06T01:06:47;13.60;;;3.45;;
27612;SDS011;15036;48.094;-1.690;2023-08-06T01:17:22;9.30;;;2.50;;
27612;SDS011;15036;48.094;-1.690;2023-08-06T01:19:49;15.90;;;3.05;;
27612;SDS011;15036;48.094;-1.690;2023-08-06T01:22:14;10.93;;;3.15;;
27612;SDS011;15036;48.094;-1.690;2023-08-06T01:24:40;13.35;;;3.20;;
27612;SDS011;15036;48.094;-1.690;2023-08-06T01:27:11;15.82;;;3.13;;
27612;SDS011;15036;48.094;-1.690;2023-08-06T01:29:47;10.73;;;3.10;;
27612;SDS011;15036;48.094;-1.690;2023-08-06T01:32:21;10.38;;;2.90;;
27612;SDS011;15036;48.094;-1.690;2023-08-06T01:34:47;10.30;;;3.03;;
27612;SDS011;15036;48.094;-1.690;2023-08-06T01:37:14;9.50;;;2.80;;
27612;SDS011;15036;48.094;-1.690;2023-08-06T01:39:41;16.60;;;2.72;;
27612;SDS011;15036;48.094;-1.690;2023-08-06T01:42:07;14.43;;;3.15;;
27612;SDS011;15036;48.094;-1.690;2023-08-06T01:44:34;12.32;;;2.92;;
27612;SDS011;15036;48.094;-1.690;2023-08-06T01:47:00;14.52;;;3.20;;
27612;SDS011;15036;48.094;-1.690;2023-08-06T01:49:27;13.82;;;2.63;;
27612;SDS011;15036;48.094;-1.690;2023-08-06T01:51:52;8.30;;;2.58;;
27612;SDS011;15036;48.094;-1.690;2023-08-06T01:54:18;12.85;;;2.90;;
27612;SDS011;15036;48.094;-1.690;2023-08-06T01:56:44;14.20;;;2.60;;
27612;SDS011;15036;48.094;-1.690;2023-08-06T01:59:09;13.02;;;3.08;;
27612;SDS011;15036;48.094;-1.690;2023-08-06T02:01:34;15.15;;;3.20;;
27612;SDS011;15036;48.094;-1.690;2023-08-06T02:04:00;14.60;;;3.30;;
27612;SDS011;15036;48.094;-1.690;2023-08-06T02:06:25;13.45;;;3.00;;
27612;SDS011;15036;48.094;-1.690;2023-08-06T02:08:50;13.68;;;2.85;;
27612;SDS011;15036;48.094;-1.690;2023-08-06T02:11:16;11.95;;;2.78;;
27612;SDS011;15036;48.094;-1.690;2023-08-06T02:13:41;14.68;;;3.08;;
27612;SDS011;15036;48.094;-1.690;2023-08-06T02:16:07;12.45;;;2.55;;
27612;SDS011;15036;48.094;-1.690;2023-08-06T02:18:33;12.38;;;2.90;;
27612;SDS011;15036;48.094;-1.690;2023-08-06T02:20:59;12.02;;;2.50;;
27612;SDS011;15036;48.094;-1.690;2023-08-06T02:23:24;18.48;;;3.15;;
27612;SDS011;15036;48.094;-1.690;2023-08-06T02:25:58;10.27;;;2.83;;
27612;SDS011;15036;48.094;-1.690;2023-08-06T02:28:24;8.63;;;2.45;;
27612;SDS011;15036;48.094;-1.690;2023-08-06T02:30:50;11.55;;;2.80;;
27612;SDS011;15036;48.094;-1.690;2023-08-06T02:33:16;14.68;;;2.70;;
27612;SDS011;15036;48.094;-1.690;2023-08-06T02:35:41;13.27;;;3.00;;
27612;SDS011;15036;48.094;-1.690;2023-08-06T02:38:06;12.43;;;2.97;;
27612;SDS011;15036;48.094;-1.690;2023-08-06T02:40:32;13.60;;;2.75;;
27612;SDS011;15036;48.094;-1.690;2023-08-06T02:42:57;14.68;;;2.90;;
27612;SDS011;15036;48.094;-1.690;2023-08-06T02:45:22;11.23;;;2.78;;
27612;SDS011;15036;48.094;-1.690;2023-08-06T02:47:48;9.20;;;2.50;;
27612;SDS011;15036;48.094;-1.690;2023-08-06T02:50:13;10.85;;;2.67;;
27612;SDS011;15036;48.094;-1.690;2023-08-06T02:52:38;13.13;;;2.80;;
27612;SDS011;15036;48.094;-1.690;2023-08-06T02:55:05;11.82;;;2.42;;
27612;SDS011;15036;48.094;-1.690;2023-08-06T02:57:31;11.77;;;3.03;;
27612;SDS011;15036;48.094;-1.690;2023-08-06T02:59:56;11.93;;;2.92;;
27612;SDS011;15036;48.094;-1.690;2023-08-06T03:02:22;15.18;;;2.90;;
27612;SDS011;15036;48.094;-1.690;2023-08-06T03:04:47;10.57;;;2.55;;
27612;SDS011;15036;48.094;-1.690;2023-08-06T03:07:13;12.15;;;2.97;;
27612;SDS011;15036;48.094;-1.690;2023-08-06T03:09:38;10.95;;;2.72;;
27612;SDS011;15036;48.094;-1.690;2023-08-06T03:12:04;11.10;;;2.60;;
27612;SDS011;15036;48.094;-1.690;2023-08-06T03:14:30;12.07;;;2.80;;
27612;SDS011;15036;48.094;-1.690;2023-08-06T03:16:56;8.48;;;2.60;;
27612;SDS011;15036;48.094;-1.690;2023-08-06T03:19:21;9.95;;;2.45;;
27612;SDS011;15036;48.094;-1.690;2023-08-06T03:21:46;13.93;;;2.70;;
27612;SDS011;15036;48.094;-1.690;2023-08-06T03:24:13;13.32;;;3.10;;
27612;SDS011;15036;48.094;-1.690;2023-08-06T03:26:38;11.85;;;2.80;;
27612;SDS011;15036;48.094;-1.690;2023-08-06T03:29:04;12.70;;;2.90;;
27612;SDS011;15036;48.094;-1.690;2023-08-06T03:31:29;11.55;;;3.13;;
27612;SDS011;15036;48.094;-1.690;2023-08-06T03:33:54;11.43;;;3.17;;
27612;SDS011;15036;48.094;-1.690;2023-08-06T03:36:20;12.88;;;3.35;;
27612;SDS011;15036;48.094;-1.690;2023-08-06T03:38:45;11.73;;;2.83;;
27612;SDS011;15036;48.094;-1.690;2023-08-06T03:41:10;13.13;;;2.78;;
27612;SDS011;15036;48.094;-1.690;2023-08-06T03:43:36;11.98;;;2.90;;
27612;SDS011;15036;48.094;-1.690;2023-08-06T03:46:01;11.60;;;3.00;;
27612;SDS011;15036;48.094;-1.690;2023-08-06T03:48:26;10.73;;;3.38;;
27612;SDS011;15036;48.094;-1.690;2023-08-06T03:50:52;15.18;;;2.85;;
27612;SDS011;15036;48.094;-1.690;2023-08-06T03:53:17;12.60;;;3.22;;
27612;SDS011;15036;48.094;-1.690;2023-08-06T03:55:42;12.32;;;3.10;;
27612;SDS011;15036;48.094;-1.690;2023-08-06T03:58:08;14.18;;;3.28;;
27612;SDS011;15036;48.094;-1.690;2023-08-06T04:00:33;14.27;;;2.80;;
27612;SDS011;15036;48.094;-1.690;2023-08-06T04:02:59;16.50;;;2.75;;
27612;SDS011;15036;48.094;-1.690;2023-08-06T04:05:24;13.80;;;2.85;;
27612;SDS011;15036;48.094;-1.690;2023-08-06T04:07:49;13.52;;;2.92;;
27612;SDS011;15036;48.094;-1.690;2023-08-06T04:10:15;10.07;;;2.50;;
27612;SDS011;15036;48.094;-1.690;2023-08-06T04:12:40;14.48;;;2.80;;
27612;SDS011;15036;48.094;-1.690;2023-08-06T04:15:05;12.57;;;3.22;;
27612;SDS011;15036;48.094;-1.690;2023-08-06T04:17:31;13.57;;;2.95;;
27612;SDS011;15036;48.094;-1.690;2023-08-06T04:19:57;16.08;;;3.47;;
27612;SDS011;15036;48.094;-1.690;2023-08-06T04:22:23;14.30;;;2.85;;
27612;SDS011;15036;48.094;-1.690;2023-08-06T04:24:49;12.98;;;3.25;;
27612;SDS011;15036;48.094;-1.690;2023-08-06T04:27:14;15.05;;;3.15;;
27612;SDS011;15036;48.094;-1.690;2023-08-06T04:29:40;11.95;;;3.22;;
27612;SDS011;15036;48.094;-1.690;2023-08-06T04:32:08;10.68;;;2.92;;
27612;SDS011;15036;48.094;-1.690;2023-08-06T04:34:34;13.55;;;3.08;;
27612;SDS011;15036;48.094;-1.690;2023-08-06T04:37:01;13.82;;;2.88;;
27612;SDS011;15036;48.094;-1.690;2023-08-06T04:39:26;12.23;;;3.20;;
27612;SDS011;15036;48.094;-1.690;2023-08-06T04:41:52;16.08;;;3.10;;
27612;SDS011;15036;48.094;-1.690;2023-08-06T04:44:18;10.73;;;2.72;;
27612;SDS011;15036;48.094;-1.690;2023-08-06T04:46:43;17.58;;;3.53;;
27612;SDS011;15036;48.094;-1.690;2023-08-06T04:49:08;15.20;;;3.10;;
27612;SDS011;15036;48.094;-1.690;2023-08-06T04:51:34;14.80;;;3.30;;
27612;SDS011;15036;48.094;-1.690;2023-08-06T04:54:00;15.23;;;3.30;;
27612;SDS011;15036;48.094;-1.690;2023-08-06T04:56:25;13.73;;;2.95;;
27612;SDS011;15036;48.094;-1.690;2023-08-06T04:58:50;16.15;;;3.22;;
27612;SDS011;15036;48.094;-1.690;2023-08-06T05:01:16;19.30;;;2.85;;
27612;SDS011;15036;48.094;-1.690;2023-08-06T05:03:42;12.85;;;2.95;;
27612;SDS011;15036;48.094;-1.690;2023-08-06T05:06:07;12.07;;;2.85;;
27612;SDS011;15036;48.094;-1.690;2023-08-06T05:08:32;15.07;;;3.20;;
27612;SDS011;15036;48.094;-1.690;2023-08-06T05:10:58;11.48;;;2.40;;
27612;SDS011;15036;48.094;-1.690;2023-08-06T05:13:23;12.52;;;2.90;;
27612;SDS011;15036;48.094;-1.690;2023-08-06T05:15:50;12.30;;;3.05;;
27612;SDS011;15036;48.094;-1.690;2023-08-06T05:18:15;17.45;;;3.60;;
27612;SDS011;15036;48.094;-1.690;2023-08-06T05:20:41;12.88;;;2.78;;
27612;SDS011;15036;48.094;-1.690;2023-08-06T05:23:07;16.17;;;3.25;;
27612;SDS011;15036;48.094;-1.690;2023-08-06T05:25:36;15.38;;;3.25;;
27612;SDS011;15036;48.094;-1.690;2023-08-06T05:28:02;13.88;;;3.70;;
27612;SDS011;15036;48.094;-1.690;2023-08-06T05:30:28;15.68;;;3.38;;
27612;SDS011;15036;48.094;-1.690;2023-08-06T05:32:53;13.95;;;3.25;;
27612;SDS011;15036;48.094;-1.690;2023-08-06T05:35:20;17.33;;;3.33;;
27612;SDS011;15036;48.094;-1.690;2023-08-06T05:37:46;15.25;;;3.25;;
27612;SDS011;15036;48.094;-1.690;2023-08-06T05:40:11;15.35;;;3.08;;
27612;SDS011;15036;48.094;-1.690;2023-08-06T05:42:36;13.43;;;3.35;;
27612;SDS011;15036;48.094;-1.690;2023-08-06T05:45:02;14.43;;;3.20;;
27612;SDS011;15036;48.094;-1.690;2023-08-06T05:47:27;18.15;;;3.60;;
27612;SDS011;15036;48.094;-1.690;2023-08-06T05:49:52;16.63;;;3.20;;
27612;SDS011;15036;48.094;-1.690;2023-08-06T05:52:18;17.35;;;3.50;;
27612;SDS011;15036;48.094;-1.690;2023-08-06T05:54:43;17.77;;;3.60;;
27612;SDS011;15036;48.094;-1.690;2023-08-06T05:57:09;17.17;;;3.33;;
27612;SDS011;15036;48.094;-1.690;2023-08-06T05:59:34;18.70;;;3.38;;
27612;SDS011;15036;48.094;-1.690;2023-08-06T06:01:59;22.48;;;3.80;;
27612;SDS011;15036;48.094;-1.690;2023-08-06T06:04:25;15.85;;;3.15;;
27612;SDS011;15036;48.094;-1.690;2023-08-06T06:06:50;13.88;;;3.78;;
27612;SDS011;15036;48.094;-1.690;2023-08-06T06:09:15;18.55;;;3.70;;
27612;SDS011;15036;48.094;-1.690;2023-08-06T06:11:41;15.43;;;3.15;;
27612;SDS011;15036;48.094;-1.690;2023-08-06T06:14:06;16.80;;;3.67;;
27612;SDS011;15036;48.094;-1.690;2023-08-06T06:16:31;16.00;;;3.70;;
27612;SDS011;15036;48.094;-1.690;2023-08-06T06:18:57;17.17;;;3.30;;
27612;SDS011;15036;48.094;-1.690;2023-08-06T06:21:22;14.77;;;3.63;;
27612;SDS011;15036;48.094;-1.690;2023-08-06T06:23:49;14.63;;;3.05;;
27612;SDS011;15036;48.094;-1.690;2023-08-06T06:26:16;14.82;;;3.63;;
27612;SDS011;15036;48.094;-1.690;2023-08-06T06:28:42;16.00;;;3.45;;
27612;SDS011;15036;48.094;-1.690;2023-08-06T06:31:07;16.35;;;3.70;;
27612;SDS011;15036;48.094;-1.690;2023-08-06T06:33:33;15.95;;;3.83;;
27612;SDS011;15036;48.094;-1.690;2023-08-06T06:35:58;18.15;;;3.67;;
27612;SDS011;15036;48.094;-1.690;2023-08-06T06:38:23;15.35;;;3.55;;
27612;SDS011;15036;48.094;-1.690;2023-08-06T06:40:57;18.00;;;3.55;;
27612;SDS011;15036;48.094;-1.690;2023-08-06T06:43:23;17.73;;;3.55;;
27612;SDS011;15036;48.094;-1.690;2023-08-06T06:45:52;13.75;;;3.55;;
27612;SDS011;15036;48.094;-1.690;2023-08-06T06:48:22;17.33;;;3.42;;
27612;SDS011;15036;48.094;-1.690;2023-08-06T06:50:47;14.68;;;3.40;;
27612;SDS011;15036;48.094;-1.690;2023-08-06T06:53:13;16.15;;;3.85;;
27612;SDS011;15036;48.094;-1.690;2023-08-06T06:55:39;19.48;;;3.67;;
27612;SDS011;15036;48.094;-1.690;2023-08-06T06:58:04;17.20;;;3.88;;
27612;SDS011;15036;48.094;-1.690;2023-08-06T07:00:30;13.85;;;3.65;;
27612;SDS011;15036;48.094;-1.690;2023-08-06T07:02:55;17.58;;;3.58;;
27612;SDS011;15036;48.094;-1.690;2023-08-06T07:05:20;17.35;;;4.18;;
27612;SDS011;15036;48.094;-1.690;2023-08-06T07:07:46;16.42;;;3.17;;
27612;SDS011;15036;48.094;-1.690;2023-08-06T07:10:11;16.63;;;4.03;;
27612;SDS011;15036;48.094;-1.690;2023-08-06T07:12:36;16.05;;;3.47;;
27612;SDS011;15036;48.094;-1.690;2023-08-06T07:15:04;17.88;;;3.55;;
27612;SDS011;15036;48.094;-1.690;2023-08-06T07:17:31;11.80;;;3.45;;
27612;SDS011;15036;48.094;-1.690;2023-08-06T07:19:56;18.23;;;4.03;;
27612;SDS011;15036;48.094;-1.690;2023-08-06T07:22:22;15.20;;;3.67;;
27612;SDS011;15036;48.094;-1.690;2023-08-06T07:24:47;14.40;;;3.38;;
27612;SDS011;15036;48.094;-1.690;2023-08-06T07:27:12;14.88;;;3.30;;
27612;SDS011;15036;48.094;-1.690;2023-08-06T07:29:37;16.08;;;3.75;;
27612;SDS011;15036;48.094;-1.690;2023-08-06T07:32:03;14.35;;;3.35;;
27612;SDS011;15036;48.094;-1.690;2023-08-06T07:34:29;11.27;;;3.20;;
27612;SDS011;15036;48.094;-1.690;2023-08-06T07:36:54;22.02;;;8.23;;
27612;SDS011;15036;48.094;-1.690;2023-08-06T07:39:19;15.32;;;3.38;;
27612;SDS011;15036;48.094;-1.690;2023-08-06T07:41:45;14.05;;;3.78;;
27612;SDS011;15036;48.094;-1.690;2023-08-06T07:44:11;14.13;;;3.40;;
27612;SDS011;15036;48.094;-1.690;2023-08-06T07:46:36;20.42;;;3.45;;
27612;SDS011;15036;48.094;-1.690;2023-08-06T07:49:02;10.50;;;3.17;;
27612;SDS011;15036;48.094;-1.690;2023-08-06T07:51:27;15.10;;;3.38;;
27612;SDS011;15036;48.094;-1.690;2023-08-06T07:53:53;13.73;;;3.75;;
27612;SDS011;15036;48.094;-1.690;2023-08-06T07:56:18;16.95;;;3.15;;
27612;SDS011;15036;48.094;-1.690;2023-08-06T07:58:44;14.35;;;2.72;;
27612;SDS011;15036;48.094;-1.690;2023-08-06T08:01:09;13.30;;;3.22;;
27612;SDS011;15036;48.094;-1.690;2023-08-06T08:03:34;17.90;;;3.20;;
27612;SDS011;15036;48.094;-1.690;2023-08-06T08:06:00;11.52;;;2.72;;
27612;SDS011;15036;48.094;-1.690;2023-08-06T08:08:25;12.98;;;2.88;;
27612;SDS011;15036;48.094;-1.690;2023-08-06T08:10:50;13.85;;;2.90;;
27612;SDS011;15036;48.094;-1.690;2023-08-06T08:13:16;13.65;;;2.83;;
27612;SDS011;15036;48.094;-1.690;2023-08-06T08:15:41;9.10;;;2.63;;
27612;SDS011;15036;48.094;-1.690;2023-08-06T08:18:07;10.13;;;2.15;;
27612;SDS011;15036;48.094;-1.690;2023-08-06T08:20:32;14.82;;;3.15;;
27612;SDS011;15036;48.094;-1.690;2023-08-06T08:23:00;11.73;;;2.30;;
27612;SDS011;15036;48.094;-1.690;2023-08-06T08:25:25;11.48;;;2.60;;
27612;SDS011;15036;48.094;-1.690;2023-08-06T08:27:52;10.88;;;2.70;;
27612;SDS011;15036;48.094;-1.690;2023-08-06T08:30:17;8.95;;;2.40;;
27612;SDS011;15036;48.094;-1.690;2023-08-06T08:32:43;11.68;;;3.00;;
27612;SDS011;15036;48.094;-1.690;2023-08-06T08:35:08;12.82;;;3.95;;
27612;SDS011;15036;48.094;-1.690;2023-08-06T08:37:33;11.13;;;2.60;;
27612;SDS011;15036;48.094;-1.690;2023-08-06T08:39:59;8.60;;;2.60;;
27612;SDS011;15036;48.094;-1.690;2023-08-06T08:42:25;9.55;;;2.60;;
27612;SDS011;15036;48.094;-1.690;2023-08-06T08:44:52;10.05;;;2.67;;
27612;SDS011;15036;48.094;-1.690;2023-08-06T08:47:18;11.15;;;2.72;;
27612;SDS011;15036;48.094;-1.690;2023-08-06T08:49:44;6.75;;;2.30;;
27612;SDS011;15036;48.094;-1.690;2023-08-06T08:52:11;9.45;;;2.50;;
27612;SDS011;15036;48.094;-1.690;2023-08-06T08:54:39;9.20;;;2.10;;
27612;SDS011;15036;48.094;-1.690;2023-08-06T08:57:05;10.35;;;2.63;;
27612;SDS011;15036;48.094;-1.690;2023-08-06T08:59:32;10.23;;;2.35;;
27612;SDS011;15036;48.094;-1.690;2023-08-06T09:01:58;10.45;;;3.30;;
27612;SDS011;15036;48.094;-1.690;2023-08-06T09:04:26;8.30;;;2.08;;
27612;SDS011;15036;48.094;-1.690;2023-08-06T09:09:23;10.25;;;2.10;;
27612;SDS011;15036;48.094;-1.690;2023-08-06T09:11:51;12.13;;;2.47;;
27612;SDS011;15036;48.094;-1.690;2023-08-06T09:14:19;8.93;;;2.50;;
27612;SDS011;15036;48.094;-1.690;2023-08-06T09:16:44;9.32;;;2.65;;
27612;SDS011;15036;48.094;-1.690;2023-08-06T09:19:10;11.20;;;2.83;;
27612;SDS011;15036;48.094;-1.690;2023-08-06T09:21:38;9.15;;;1.98;;
27612;SDS011;15036;48.094;-1.690;2023-08-06T09:24:13;12.95;;;5.30;;
27612;SDS011;15036;48.094;-1.690;2023-08-06T09:26:40;12.80;;;2.35;;
27612;SDS011;15036;48.094;-1.690;2023-08-06T09:29:07;7.93;;;2.28;;
27612;SDS011;15036;48.094;-1.690;2023-08-06T09:31:46;5.97;;;1.80;;
27612;SDS011;15036;48.094;-1.690;2023-08-06T09:34:16;4.28;;;1.80;;
27612;SDS011;15036;48.094;-1.690;2023-08-06T09:36:50;5.10;;;1.63;;
27612;SDS011;15036;48.094;-1.690;2023-08-06T09:39:19;7.20;;;1.35;;
27612;SDS011;15036;48.094;-1.690;2023-08-06T09:41:46;7.78;;;1.65;;
27612;SDS011;15036;48.094;-1.690;2023-08-06T09:46:47;5.28;;;1.70;;
27612;SDS011;15036;48.094;-1.690;2023-08-06T09:49:39;3.95;;;1.48;;
27612;SDS011;15036;48.094;-1.690;2023-08-06T09:52:11;7.28;;;1.70;;
27612;SDS011;15036;48.094;-1.690;2023-08-06T09:54:37;7.60;;;1.80;;
27612;SDS011;15036;48.094;-1.690;2023-08-06T09:57:03;6.28;;;1.95;;
27612;SDS011;15036;48.094;-1.690;2023-08-06T09:59:29;6.78;;;1.80;;
27612;SDS011;15036;48.094;-1.690;2023-08-06T10:01:55;7.07;;;1.65;;
27612;SDS011;15036;48.094;-1.690;2023-08-06T10:04:21;6.72;;;1.60;;
27612;SDS011;15036;48.094;-1.690;2023-08-06T10:06:47;5.88;;;1.63;;
27612;SDS011;15036;48.094;-1.690;2023-08-06T10:09:14;6.35;;;1.90;;
27612;SDS011;15036;48.094;-1.690;2023-08-06T10:11:42;5.75;;;1.95;;
27612;SDS011;15036;48.094;-1.690;2023-08-06T10:14:12;5.47;;;1.58;;
27612;SDS011;15036;48.094;-1.690;2023-08-06T10:16:41;6.22;;;1.90;;
27612;SDS011;15036;48.094;-1.690;2023-08-06T10:19:09;4.22;;;1.30;;
27612;SDS011;15036;48.094;-1.690;2023-08-06T10:21:37;5.85;;;1.67;;
27612;SDS011;15036;48.094;-1.690;2023-08-06T10:24:03;9.98;;;5.80;;
27612;SDS011;15036;48.094;-1.690;2023-08-06T10:26:35;5.10;;;2.10;;
27612;SDS011;15036;48.094;-1.690;2023-08-06T10:29:21;9.10;;;1.88;;
27612;SDS011;15036;48.094;-1.690;2023-08-06T10:32:00;6.07;;;1.35;;
27612;SDS011;15036;48.094;-1.690;2023-08-06T10:34:34;4.85;;;1.63;;
27612;SDS011;15036;48.094;-1.690;2023-08-06T10:37:23;4.05;;;1.10;;
27612;SDS011;15036;48.094;-1.690;2023-08-06T10:40:09;4.95;;;1.30;;
27612;SDS011;15036;48.094;-1.690;2023-08-06T10:42:34;6.60;;;1.20;;
27612;SDS011;15036;48.094;-1.690;2023-08-06T10:45:12;5.00;;;1.30;;
27612;SDS011;15036;48.094;-1.690;2023-08-06T10:47:40;4.82;;;1.27;;
27612;SDS011;15036;48.094;-1.690;2023-08-06T10:50:12;4.43;;;1.30;;
27612;SDS011;15036;48.094;-1.690;2023-08-06T10:52:41;4.38;;;1.15;;
27612;SDS011;15036;48.094;-1.690;2023-08-06T10:55:06;6.38;;;1.30;;
27612;SDS011;15036;48.094;-1.690;2023-08-06T10:57:32;6.18;;;1.50;;
27612;SDS011;15036;48.094;-1.690;2023-08-06T10:59:58;5.18;;;1.23;;
27612;SDS011;15036;48.094;-1.690;2023-08-06T11:02:23;4.28;;;1.40;;
27612;SDS011;15036;48.094;-1.690;2023-08-06T11:04:48;3.00;;;1.10;;
27612;SDS011;15036;48.094;-1.690;2023-08-06T11:07:14;4.60;;;1.27;;
27612;SDS011;15036;48.094;-1.690;2023-08-06T11:09:41;5.72;;;1.13;;
27612;SDS011;15036;48.094;-1.690;2023-08-06T11:12:09;4.13;;;1.45;;
27612;SDS011;15036;48.094;-1.690;2023-08-06T11:14:36;4.33;;;0.93;;
27612;SDS011;15036;48.094;-1.690;2023-08-06T11:17:01;4.50;;;1.40;;
27612;SDS011;15036;48.094;-1.690;2023-08-06T11:19:26;3.80;;;1.27;;
27612;SDS011;15036;48.094;-1.690;2023-08-06T11:21:52;3.60;;;1.15;;
27612;SDS011;15036;48.094;-1.690;2023-08-06T11:24:19;3.08;;;1.20;;
27612;SDS011;15036;48.094;-1.690;2023-08-06T11:26:46;6.47;;;1.30;;
27612;SDS011;15036;48.094;-1.690;2023-08-06T11:29:11;3.22;;;1.10;;
27612;SDS011;15036;48.094;-1.690;2023-08-06T11:31:37;4.95;;;1.02;;
27612;SDS011;15036;48.094;-1.690;2023-08-06T11:34:02;4.45;;;1.35;;
27612;SDS011;15036;48.094;-1.690;2023-08-06T11:36:31;3.33;;;1.30;;
27612;SDS011;15036;48.094;-1.690;2023-08-06T11:38:58;5.85;;;1.20;;
27612;SDS011;15036;48.094;-1.690;2023-08-06T11:41:28;5.20;;;1.42;;
27612;SDS011;15036;48.094;-1.690;2023-08-06T11:43:54;5.28;;;1.27;;
27612;SDS011;15036;48.094;-1.690;2023-08-06T11:46:19;2.90;;;1.08;;
27612;SDS011;15036;48.094;-1.690;2023-08-06T11:48:54;6.47;;;1.52;;
27612;SDS011;15036;48.094;-1.690;2023-08-06T11:51:24;3.92;;;1.42;;
27612;SDS011;15036;48.094;-1.690;2023-08-06T11:53:51;4.20;;;1.23;;
27612;SDS011;15036;48.094;-1.690;2023-08-06T11:56:21;4.93;;;1.23;;
27612;SDS011;15036;48.094;-1.690;2023-08-06T11:58:47;5.63;;;1.15;;
27612;SDS011;15036;48.094;-1.690;2023-08-06T12:01:13;4.32;;;1.10;;
27612;SDS011;15036;48.094;-1.690;2023-08-06T12:03:41;5.97;;;1.40;;
27612;SDS011;15036;48.094;-1.690;2023-08-06T12:06:07;4.38;;;1.10;;
27612;SDS011;15036;48.094;-1.690;2023-08-06T12:08:32;3.22;;;1.20;;
27612;SDS011;15036;48.094;-1.690;2023-08-06T12:10:58;5.30;;;1.40;;
27612;SDS011;15036;48.094;-1.690;2023-08-06T12:13:23;3.97;;;1.05;;
27612;SDS011;15036;48.094;-1.690;2023-08-06T12:15:49;3.22;;;0.90;;
27612;SDS011;15036;48.094;-1.690;2023-08-06T12:18:14;5.32;;;1.10;;
27612;SDS011;15036;48.094;-1.690;2023-08-06T12:20:40;7.18;;;1.55;;
27612;SDS011;15036;48.094;-1.690;2023-08-06T12:23:05;3.45;;;1.00;;
27612;SDS011;15036;48.094;-1.690;2023-08-06T12:25:30;3.15;;;0.93;;
27612;SDS011;15036;48.094;-1.690;2023-08-06T12:27:56;3.40;;;1.00;;
27612;SDS011;15036;48.094;-1.690;2023-08-06T12:30:21;4.28;;;1.15;;
27612;SDS011;15036;48.094;-1.690;2023-08-06T12:32:47;6.00;;;1.15;;
27612;SDS011;15036;48.094;-1.690;2023-08-06T12:35:12;3.55;;;1.00;;
27612;SDS011;15036;48.094;-1.690;2023-08-06T12:37:39;3.00;;;1.08;;
27612;SDS011;15036;48.094;-1.690;2023-08-06T12:40:04;3.22;;;1.00;;
27612;SDS011;15036;48.094;-1.690;2023-08-06T12:42:30;2.88;;;0.90;;
27612;SDS011;15036;48.094;-1.690;2023-08-06T12:44:55;2.97;;;1.08;;
27612;SDS011;15036;48.094;-1.690;2023-08-06T12:47:21;3.40;;;1.17;;
27612;SDS011;15036;48.094;-1.690;2023-08-06T12:49:46;3.53;;;1.00;;
27612;SDS011;15036;48.094;-1.690;2023-08-06T12:52:11;3.40;;;0.90;;
27612;SDS011;15036;48.094;-1.690;2023-08-06T12:54:40;3.17;;;0.95;;
27612;SDS011;15036;48.094;-1.690;2023-08-06T12:57:06;2.10;;;0.90;;
27612;SDS011;15036;48.094;-1.690;2023-08-06T12:59:32;3.90;;;1.10;;
27612;SDS011;15036;48.094;-1.690;2023-08-06T13:01:59;2.80;;;0.95;;
27612;SDS011;15036;48.094;-1.690;2023-08-06T13:04:25;4.15;;;1.13;;
27612;SDS011;15036;48.094;-1.690;2023-08-06T13:06:50;2.97;;;0.90;;
27612;SDS011;15036;48.094;-1.690;2023-08-06T13:09:16;3.45;;;0.90;;
27612;SDS011;15036;48.094;-1.690;2023-08-06T13:11:41;2.40;;;0.82;;
27612;SDS011;15036;48.094;-1.690;2023-08-06T13:14:11;3.53;;;1.10;;
27612;SDS011;15036;48.094;-1.690;2023-08-06T13:16:38;3.60;;;1.00;;
27612;SDS011;15036;48.094;-1.690;2023-08-06T13:19:05;4.15;;;1.27;;
27612;SDS011;15036;48.094;-1.690;2023-08-06T13:21:32;5.25;;;1.00;;
27612;SDS011;15036;48.094;-1.690;2023-08-06T13:23:59;3.97;;;1.00;;
27612;SDS011;15036;48.094;-1.690;2023-08-06T13:26:27;3.05;;;1.10;;
27612;SDS011;15036;48.094;-1.690;2023-08-06T13:28:53;4.38;;;1.30;;
27612;SDS011;15036;48.094;-1.690;2023-08-06T13:31:18;3.78;;;1.10;;
27612;SDS011;15036;48.094;-1.690;2023-08-06T13:33:44;3.53;;;0.93;;
27612;SDS011;15036;48.094;-1.690;2023-08-06T13:36:09;5.03;;;1.15;;
27612;SDS011;15036;48.094;-1.690;2023-08-06T13:38:35;4.70;;;1.20;;
27612;SDS011;15036;48.094;-1.690;2023-08-06T13:41:01;4.53;;;1.23;;
27612;SDS011;15036;48.094;-1.690;2023-08-06T13:43:27;4.53;;;1.17;;
27612;SDS011;15036;48.094;-1.690;2023-08-06T13:45:53;2.47;;;1.20;;
27612;SDS011;15036;48.094;-1.690;2023-08-06T13:48:18;2.85;;;1.00;;
27612;SDS011;15036;48.094;-1.690;2023-08-06T13:50:43;3.30;;;1.23;;
27612;SDS011;15036;48.094;-1.690;2023-08-06T13:53:09;4.22;;;1.23;;
27612;SDS011;15036;48.094;-1.690;2023-08-06T13:55:35;3.22;;;1.10;;
27612;SDS011;15036;48.094;-1.690;2023-08-06T13:58:00;4.35;;;1.17;;
27612;SDS011;15036;48.094;-1.690;2023-08-06T14:00:25;3.78;;;1.15;;
27612;SDS011;15036;48.094;-1.690;2023-08-06T14:02:51;4.45;;;1.10;;
27612;SDS011;15036;48.094;-1.690;2023-08-06T14:05:16;3.97;;;1.05;;
27612;SDS011;15036;48.094;-1.690;2023-08-06T14:07:41;4.93;;;1.20;;
27612;SDS011;15036;48.094;-1.690;2023-08-06T14:10:07;3.10;;;0.98;;
27612;SDS011;15036;48.094;-1.690;2023-08-06T14:12:34;2.92;;;1.05;;
27612;SDS011;15036;48.094;-1.690;2023-08-06T14:14:59;3.50;;;1.48;;
27612;SDS011;15036;48.094;-1.690;2023-08-06T14:17:25;2.55;;;1.10;;
27612;SDS011;15036;48.094;-1.690;2023-08-06T14:19:50;3.60;;;1.13;;
27612;SDS011;15036;48.094;-1.690;2023-08-06T14:22:16;4.25;;;1.30;;
27612;SDS011;15036;48.094;-1.690;2023-08-06T14:24:41;4.35;;;1.27;;
27612;SDS011;15036;48.094;-1.690;2023-08-06T14:27:07;3.65;;;1.10;;
27612;SDS011;15036;48.094;-1.690;2023-08-06T14:29:32;4.45;;;1.20;;
27612;SDS011;15036;48.094;-1.690;2023-08-06T14:31:57;5.68;;;1.25;;
27612;SDS011;15036;48.094;-1.690;2023-08-06T14:34:23;3.42;;;1.20;;